Time;durP1;ratioP1;P1;durP2;ratioP2;P2;SDS_P1;SDS_P2;PMS_P1;PMS_P2;Temp;Humidity;BMP_temperature;BMP_pressure;BME280_temperature;BME280_humidity;BME280_pressure;Samples;Min_cycle;Max_cycle;Signal;HPM_P1;HPM_P2
2023/09/28 00:02:07;;;;;;;;;10.67;10.33;;;;;24.78;68.28;100776.41;6250965;22;45202;-75
2023/09/28 00:04:32;;;;;;;;;9.00;9.00;;;;;24.74;68.92;100768.41;6251995;22;44740;-74
2023/09/28 00:06:58;;;;;;;;;12.00;12.00;;;;;24.72;69.35;100778.47;6224683;22;45183;-74
2023/09/28 00:09:24;;;;;;;;;14.33;12.00;;;;;24.66;69.31;100766.97;6223555;22;44921;-74
2023/09/28 00:11:50;;;;;;;;;13.00;13.00;;;;;24.64;70.05;100769.75;6223428;22;47090;-74
2023/09/28 00:14:15;;;;;;;;;12.00;12.00;;;;;24.57;70.19;100770.97;6252536;22;45344;-74
2023/09/28 00:16:41;;;;;;;;;11.67;11.00;;;;;24.51;70.17;100768.53;6252351;22;45220;-74
2023/09/28 00:19:06;;;;;;;;;10.67;10.67;;;;;24.47;70.39;100767.72;6253659;22;44736;-74
2023/09/28 00:21:31;;;;;;;;;10.33;10.33;;;;;24.43;70.42;100765.22;6253290;22;45339;-73
2023/09/28 00:23:57;;;;;;;;;12.00;11.00;;;;;24.48;71.01;100769.50;6253701;22;44693;-74
2023/09/28 00:26:23;;;;;;;;;9.00;8.33;;;;;24.33;70.07;100765.59;6251009;22;44832;-75
2023/09/28 00:28:48;;;;;;;;;12.33;10.67;;;;;24.39;70.52;100778.06;6226021;22;44761;-73
2023/09/28 00:31:14;;;;;;;;;10.67;10.67;;;;;24.41;70.80;100778.88;6250867;22;46960;-74
2023/09/28 00:33:39;;;;;;;;;12.00;12.00;;;;;24.40;70.53;100787.09;6251460;22;44858;-75
2023/09/28 00:36:04;;;;;;;;;11.33;11.00;;;;;24.46;70.39;100794.97;6222822;22;44863;-73
2023/09/28 00:38:30;;;;;;;;;8.67;6.67;;;;;24.55;70.01;100803.66;6253031;22;44852;-74
2023/09/28 00:40:55;;;;;;;;;9.00;9.00;;;;;24.59;70.08;100804.41;6253673;22;45457;-74
2023/09/28 00:43:27;;;;;;;;;7.33;7.33;;;;;24.86;69.85;100801.44;6250938;22;44810;-75
2023/09/28 00:45:53;;;;;;;;;12.00;9.00;;;;;24.62;70.53;100809.75;6251808;22;44892;-74
2023/09/28 00:48:19;;;;;;;;;11.33;9.67;;;;;24.58;69.83;100812.63;6251931;22;44849;-74
2023/09/28 00:50:45;;;;;;;;;12.00;9.00;;;;;24.64;69.85;100813.28;6249311;22;46692;-74
2023/09/28 00:53:10;;;;;;;;;7.00;6.00;;;;;24.62;69.71;100797.94;6251992;22;45183;-75
2023/09/28 00:55:37;;;;;;;;;5.00;5.00;;;;;24.75;69.59;100802.78;6251516;22;44736;-75
2023/09/28 00:58:09;;;;;;;;;8.00;7.50;;;;;24.66;69.65;100815.91;6224560;22;45740;-74
2023/09/28 01:00:36;;;;;;;;;5.75;5.75;;;;;24.58;69.55;100809.91;6253959;22;45022;-74
2023/09/28 01:03:05;;;;;;;;;10.00;7.00;;;;;24.67;69.83;100807.69;6224877;22;44910;-74
2023/09/28 01:05:38;;;;;;;;;6.67;6.67;;;;;24.55;69.80;100803.66;6252348;22;44766;-74
2023/09/28 01:08:11;;;;;;;;;8.67;8.67;;;;;24.70;69.74;100806.66;6251823;22;44806;-74
2023/09/28 01:10:38;;;;;;;;;6.33;6.33;;;;;24.45;69.96;100795.94;6223785;22;45340;-73
2023/09/28 01:13:12;;;;;;;;;8.00;6.00;;;;;24.40;70.20;100798.88;6225168;22;44870;-74
2023/09/28 01:15:42;;;;;;;;;9.00;9.00;;;;;24.59;70.28;100793.53;6252726;22;45295;-74
2023/09/28 01:18:09;;;;;;;;;9.00;8.67;;;;;24.40;70.18;100788.00;6250967;22;45350;-74
2023/09/28 01:20:37;;;;;;;;;7.00;6.00;;;;;24.33;70.55;100787.34;6252395;22;45030;-74
2023/09/28 01:23:05;;;;;;;;;6.00;6.00;;;;;24.51;70.42;100788.44;6225131;22;44831;-74
2023/09/28 01:25:31;;;;;;;;;8.75;7.50;;;;;24.25;70.78;100800.38;6219557;22;45395;-75
2023/09/28 01:27:57;;;;;;;;;7.50;6.00;;;;;24.20;70.21;100806.94;6223702;22;44776;-73
2023/09/28 01:30:23;;;;;;;;;6.75;6.75;;;;;24.25;70.62;100821.25;6222480;22;45345;-74
2023/09/28 01:32:48;;;;;;;;;7.75;6.50;;;;;24.22;70.78;100808.69;6196613;22;45310;-74
2023/09/28 01:35:13;;;;;;;;;7.00;7.00;;;;;24.29;70.41;100820.16;6223736;22;44782;-74
2023/09/28 01:38:10;;;;;;;;;6.75;5.00;;;;;24.64;69.93;100816.00;6196370;22;44790;-74
2023/09/28 01:40:36;;;;;;;;;7.00;7.00;;;;;24.35;70.78;100823.50;6223511;22;45217;-75
2023/09/28 01:43:02;;;;;;;;;5.00;5.00;;;;;24.36;70.91;100827.13;6195374;22;45429;-75
2023/09/28 01:45:27;;;;;;;;;6.75;6.75;;;;;24.43;70.65;100825.91;6195140;22;44739;-74
2023/09/28 01:47:53;;;;;;;;;7.00;7.00;;;;;24.42;70.68;100817.81;6194340;22;45771;-73
2023/09/28 01:50:18;;;;;;;;;5.33;5.33;;;;;24.47;70.74;100826.66;6193528;22;46952;-75
2023/09/28 01:52:44;;;;;;;;;7.75;6.25;;;;;24.50;70.66;100837.44;6194034;22;44750;-74
2023/09/28 01:55:09;;;;;;;;;7.00;7.00;;;;;24.51;70.56;100848.25;6219782;22;44697;-73
2023/09/28 01:57:34;;;;;;;;;6.25;6.25;;;;;24.49;70.29;100841.94;6222255;22;44674;-75
2023/09/28 02:00:00;;;;;;;;;5.25;5.25;;;;;24.49;71.06;100841.94;6223481;22;45613;-73
2023/09/28 02:02:26;;;;;;;;;5.25;5.25;;;;;24.53;70.70;100834.59;6222798;22;45168;-74
2023/09/28 02:04:52;;;;;;;;;7.50;6.25;;;;;24.45;70.91;100832.16;6222632;22;44839;-74
2023/09/28 02:07:18;;;;;;;;;6.00;6.00;;;;;24.53;70.69;100840.91;6195154;22;45318;-75
2023/09/28 02:09:43;;;;;;;;;6.67;6.67;;;;;24.50;71.21;100832.91;6196603;22;46876;-75
2023/09/28 02:12:09;;;;;;;;;6.67;5.00;;;;;24.48;70.96;100828.41;6196739;22;45549;-74
2023/09/28 02:14:34;;;;;;;;;6.00;6.00;;;;;24.53;70.49;100840.91;6222817;22;44880;-74
2023/09/28 02:17:00;;;;;;;;;6.25;6.00;;;;;24.59;70.42;100838.91;6194232;22;44932;-74
2023/09/28 02:19:25;;;;;;;;;6.00;5.33;;;;;24.59;70.64;100828.88;6221358;22;45285;-74
2023/09/28 02:21:54;;;;;;;;;6.00;6.00;;;;;24.57;70.53;100819.91;6221607;22;44812;-74
2023/09/28 02:24:19;;;;;;;;;6.25;6.25;;;;;24.53;71.00;100827.31;6224264;22;44794;-75
2023/09/28 02:26:45;;;;;;;;;7.00;5.00;;;;;24.55;70.65;100825.41;6204249;22;45830;-75
2023/09/28 02:29:12;;;;;;;;;6.25;6.25;;;;;24.62;70.64;100836.03;6166782;23;47078;-75
2023/09/28 02:31:43;;;;;;;;;7.00;7.00;;;;;24.78;70.87;100839.84;6194531;23;45054;-74
2023/09/28 02:34:09;;;;;;;;;7.00;6.00;;;;;24.54;71.17;100842.69;6167296;23;44803;-75
2023/09/28 02:36:35;;;;;;;;;7.25;6.50;;;;;24.51;71.16;100840.09;6193284;23;44713;-74
2023/09/28 02:39:04;;;;;;;;;6.33;6.33;;;;;24.47;71.65;100838.41;6191727;23;45052;-74
2023/09/28 02:41:30;;;;;;;;;5.67;5.00;;;;;24.41;71.58;100835.97;6190547;23;44828;-74
2023/09/28 02:43:55;;;;;;;;;6.00;6.00;;;;;24.46;71.52;100836.66;6190646;23;45212;-75
2023/09/28 02:46:20;;;;;;;;;9.33;8.33;;;;;24.46;71.55;100831.22;6191911;23;44800;-74
2023/09/28 02:48:46;;;;;;;;;7.00;7.00;;;;;24.43;71.28;100831.34;6191881;23;45446;-74
2023/09/28 02:51:11;;;;;;;;;7.25;5.25;;;;;24.42;71.51;100824.16;6165473;23;44907;-75
2023/09/28 02:53:37;;;;;;;;;7.25;6.25;;;;;24.36;71.80;100832.56;6163816;23;44807;-74
2023/09/28 02:56:07;;;;;;;;;5.50;5.50;;;;;24.43;71.74;100828.63;6165571;23;44814;-75
2023/09/28 02:58:34;;;;;;;;;7.00;7.00;;;;;24.32;71.94;100822.78;6192114;23;45381;-74
2023/09/28 03:01:00;;;;;;;;;7.25;6.00;;;;;24.34;71.96;100827.19;6159628;23;44845;-75
2023/09/28 03:03:39;;;;;;;;;7.00;7.00;;;;;24.60;71.77;100835.22;6162435;23;45331;-74
2023/09/28 03:06:05;;;;;;;;;6.50;6.25;;;;;24.32;72.12;100853.56;6191192;23;44797;-75
2023/09/28 03:08:31;;;;;;;;;6.00;6.00;;;;;24.37;72.32;100858.78;6165658;23;45611;-74
2023/09/28 03:10:58;;;;;;;;;8.75;8.00;;;;;24.44;72.19;100863.03;6166860;23;45169;-73
2023/09/28 03:13:25;;;;;;;;;6.00;6.00;;;;;24.37;72.24;100850.63;6167074;23;44866;-74
2023/09/28 03:15:50;;;;;;;;;5.25;4.25;;;;;24.38;72.18;100849.69;6193918;23;44738;-75
2023/09/28 03:18:16;;;;;;;;;6.00;6.00;;;;;24.35;72.28;100860.69;6166721;23;45289;-76
2023/09/28 03:36:07;;;;;;;;;2.00;2.00;;;;;23.90;65.35;100896.91;6165838;22;46381;-74
2023/09/28 03:38:33;;;;;;;;;8.25;4.50;;;;;23.51;65.42;100894.72;6219277;22;45698;-75
2023/09/28 03:40:59;;;;;;;;;4.00;4.00;;;;;23.49;65.32;100904.75;6217482;22;46538;-75
2023/09/28 03:43:24;;;;;;;;;3.67;3.33;;;;;23.47;64.79;100906.63;6217409;22;45435;-74
2023/09/28 03:45:50;;;;;;;;;3.00;3.00;;;;;23.42;64.79;100901.38;6244662;22;45436;-75
2023/09/28 03:48:16;;;;;;;;;2.75;2.75;;;;;23.33;64.66;100902.63;6245307;22;45468;-74
2023/09/28 03:50:41;;;;;;;;;1.75;1.50;;;;;23.29;63.95;100900.97;6216832;22;47236;-75
2023/09/28 03:53:06;;;;;;;;;5.00;3.50;;;;;23.26;64.07;100903.75;6244171;22;45296;-75
2023/09/28 03:55:32;;;;;;;;;3.25;3.25;;;;;23.20;63.78;100900.41;6245578;22;45931;-75
2023/09/28 03:58:00;;;;;;;;;4.00;4.00;;;;;23.40;63.72;100897.84;6217245;22;45292;-75
2023/09/28 04:00:26;;;;;;;;;6.50;2.25;;;;;23.13;64.25;100895.19;6244598;22;45469;-75
2023/09/28 04:02:52;;;;;;;;;1.75;1.75;;;;;23.10;63.73;100894.41;6244552;22;45457;-75
2023/09/28 04:05:18;;;;;;;;;2.00;2.00;;;;;23.08;63.65;100893.56;6244738;22;45406;-75
2023/09/28 04:07:43;;;;;;;;;3.25;1.50;;;;;23.07;63.88;100900.84;6244138;22;45484;-75
2023/09/28 04:10:10;;;;;;;;;4.00;2.50;;;;;23.16;63.63;100907.75;6244260;22;45484;-75
2023/09/28 04:12:36;;;;;;;;;2.25;2.00;;;;;23.16;63.62;100910.47;6244357;22;45527;-74
2023/09/28 04:15:01;;;;;;;;;2.00;2.00;;;;;23.15;63.73;100911.44;6216225;22;45312;-74
2023/09/28 04:17:27;;;;;;;;;3.50;2.00;;;;;23.17;63.57;100925.81;6244182;22;45368;-75
2023/09/28 04:19:52;;;;;;;;;4.75;3.75;;;;;23.15;63.46;100927.69;6215087;22;46770;-75
2023/09/28 04:22:19;;;;;;;;;2.00;2.00;;;;;23.17;62.73;100923.09;6242570;22;45707;-75
2023/09/28 04:24:44;;;;;;;;;2.00;2.00;;;;;23.02;62.71;100920.91;6215443;22;45367;-74
2023/09/28 04:27:09;;;;;;;;;2.00;2.00;;;;;22.91;62.87;100918.56;6215326;22;45364;-74
2023/09/28 04:29:35;;;;;;;;;3.00;2.25;;;;;22.89;62.71;100929.44;6242845;22;45291;-74
2023/09/28 04:32:01;;;;;;;;;3.75;3.50;;;;;22.84;62.82;100925.13;6243044;22;45489;-75
2023/09/28 04:34:26;;;;;;;;;4.25;2.75;;;;;22.88;62.59;100935.78;6216193;22;45277;-76
2023/09/28 04:36:52;;;;;;;;;2.00;2.00;;;;;22.89;62.31;100934.88;6240615;22;45792;-76
2023/09/28 04:39:18;;;;;;;;;1.00;1.00;;;;;22.90;62.21;100942.06;6242664;22;46008;-74
2023/09/28 04:41:43;;;;;;;;;2.50;2.50;;;;;22.91;62.61;100943.84;6242361;22;44901;-74
2023/09/28 04:44:10;;;;;;;;;3.75;2.75;;;;;22.87;61.80;100939.47;6214603;22;45391;-74
2023/09/28 04:46:36;;;;;;;;;2.50;1.00;;;;;22.76;62.09;100928.06;6243193;22;45299;-75
2023/09/28 04:49:01;;;;;;;;;3.75;2.75;;;;;22.69;62.23;100929.25;6243408;22;45683;-74
2023/09/28 04:51:28;;;;;;;;;2.75;2.75;;;;;22.72;62.33;100934.53;6242914;22;45452;-75
2023/09/28 04:53:54;;;;;;;;;4.50;3.00;;;;;22.71;62.36;100930.06;6241269;22;45364;-75
2023/09/28 04:56:20;;;;;;;;;2.75;2.75;;;;;22.68;62.52;100935.59;6216260;22;45483;-75
2023/09/28 04:58:46;;;;;;;;;5.00;2.75;;;;;22.69;63.26;100934.66;6243748;22;45789;-75
2023/09/28 05:01:11;;;;;;;;;4.00;2.75;;;;;22.73;62.71;100933.63;6242759;22;45355;-75
2023/09/28 05:03:37;;;;;;;;;3.25;2.00;;;;;22.80;62.88;100929.75;6243155;22;45467;-74
2023/09/28 05:06:04;;;;;;;;;5.50;3.75;;;;;22.79;62.88;100928.00;6216388;22;45497;-74
2023/09/28 05:08:29;;;;;;;;;2.50;2.50;;;;;22.79;62.85;100936.13;6216011;22;46860;-74
2023/09/28 05:10:55;;;;;;;;;4.75;3.25;;;;;22.77;63.01;100938.88;6243660;22;45495;-73
2023/09/28 05:13:23;;;;;;;;;3.75;3.00;;;;;22.75;62.92;100938.03;6216512;22;44799;-75
2023/09/28 05:15:48;;;;;;;;;3.75;3.00;;;;;22.73;63.14;100941.75;6216312;22;45614;-74
2023/09/28 05:18:14;;;;;;;;;2.00;2.00;;;;;22.75;62.95;100945.31;6215442;22;46882;-74
2023/09/28 05:20:39;;;;;;;;;3.00;2.00;;;;;22.75;62.54;100938.03;6243122;22;45295;-75
2023/09/28 05:23:06;;;;;;;;;3.75;2.00;;;;;22.80;62.58;100946.00;6216561;22;45432;-74
2023/09/28 05:25:34;;;;;;;;;8.67;4.67;;;;;22.59;62.25;100941.31;6244937;22;45422;-75
2023/09/28 05:28:00;;;;;;;;;4.00;2.00;;;;;22.54;62.88;100955.91;6245590;22;46549;-75
2023/09/28 05:30:25;;;;;;;;;3.00;1.75;;;;;22.46;63.20;100948.94;6216585;22;45378;-75
2023/09/28 05:32:50;;;;;;;;;5.25;3.25;;;;;22.50;62.81;100956.03;6242412;22;45398;-75
2023/09/28 05:35:17;;;;;;;;;4.00;3.00;;;;;22.48;62.30;100958.81;6216283;22;45328;-75
2023/09/28 05:37:42;;;;;;;;;2.67;2.67;;;;;22.41;62.62;100962.66;6243521;22;45985;-75
2023/09/28 05:40:09;;;;;;;;;4.00;2.00;;;;;22.45;63.12;100972.47;6242398;22;45352;-76
2023/09/28 05:42:35;;;;;;;;;2.75;1.75;;;;;22.39;63.08;100974.47;6216531;22;45372;-74
2023/09/28 05:45:07;;;;;;;;;6.25;1.75;;;;;22.64;62.45;100978.16;6215659;22;45434;-74
2023/09/28 05:47:34;;;;;;;;;4.25;4.25;;;;;22.40;62.76;100979.88;6215474;22;46766;-76
2023/09/28 05:50:00;;;;;;;;;2.75;2.75;;;;;22.30;62.81;100983.75;6215919;22;45424;-75
2023/09/28 05:52:25;;;;;;;;;4.75;2.50;;;;;22.28;62.85;100999.19;6215813;22;45480;-74
2023/09/28 05:54:51;;;;;;;;;4.00;3.50;;;;;22.30;62.75;100983.75;6216638;22;45360;-74
2023/09/28 06:00:39;;;;;;;;;5.00;3.25;;;;;22.24;62.82;100975.81;6242533;22;45426;-76
2023/09/28 06:03:04;;;;;;;;;5.50;3.00;;;;;22.24;63.72;100990.28;6216710;22;45383;-76
2023/09/28 06:05:31;;;;;;;;;2.50;2.50;;;;;22.31;63.24;100988.25;6245421;22;45308;-76
2023/09/28 06:07:58;;;;;;;;;3.75;1.75;;;;;22.34;62.55;100990.91;6216100;22;48278;-77
2023/09/28 06:10:23;;;;;;;;;3.00;2.00;;;;;22.31;63.25;100985.56;6245070;22;45273;-77
2023/09/28 06:12:48;;;;;;;;;2.75;2.00;;;;;22.36;63.14;101002.56;6243167;22;45407;-75
2023/09/28 06:15:14;;;;;;;;;3.50;3.00;;;;;22.37;62.62;101004.34;6243294;22;45530;-76
2023/09/28 06:17:39;;;;;;;;;2.50;2.00;;;;;22.38;62.95;101003.41;6242841;22;45585;-75
2023/09/28 06:20:06;;;;;;;;;2.00;2.00;;;;;22.49;62.30;101006.66;6214945;22;45397;-76
2023/09/28 06:22:33;;;;;;;;;4.75;4.50;;;;;22.45;62.45;100998.69;6215153;22;45389;-76
2023/09/28 06:24:58;;;;;;;;;2.75;2.00;;;;;22.44;62.66;100996.88;6242732;22;45413;-75
2023/09/28 06:27:28;;;;;;;;;4.00;4.00;;;;;22.57;62.57;101004.59;6242294;22;45288;-75
2023/09/28 06:29:54;;;;;;;;;4.75;4.00;;;;;22.44;62.03;101008.63;6215370;22;45771;-76
2023/09/28 06:32:21;;;;;;;;;5.00;5.00;;;;;22.46;62.55;101012.19;6215232;22;45740;-76
2023/09/28 06:34:46;;;;;;;;;2.50;1.75;;;;;22.42;62.43;101013.22;6249425;22;45644;-76
2023/09/28 06:37:12;;;;;;;;;2.00;2.00;;;;;22.50;62.44;101016.59;6213821;22;45629;-76
2023/09/28 06:39:37;;;;;;;;;4.50;3.00;;;;;22.53;62.25;101016.47;6216744;22;45350;-76
2023/09/28 06:42:04;;;;;;;;;4.75;3.50;;;;;22.51;62.34;101007.50;6243813;22;45288;-75
2023/09/28 06:44:30;;;;;;;;;4.00;2.50;;;;;22.54;61.72;101015.56;6214184;22;45288;-76
2023/09/28 06:46:57;;;;;;;;;4.75;3.00;;;;;22.53;61.67;101021.88;6212130;22;47709;-75
2023/09/28 06:49:23;;;;;;;;;6.25;3.25;;;;;22.58;61.95;101021.72;6217433;22;45516;-76
2023/09/28 06:51:49;;;;;;;;;2.25;1.75;;;;;22.63;62.18;101024.31;6210510;22;45799;-77
2023/09/28 06:54:15;;;;;;;;;4.00;3.50;;;;;22.72;62.12;101010.47;6223255;22;45451;-76
2023/09/28 06:56:40;;;;;;;;;4.00;4.00;;;;;22.81;61.39;101015.59;6211443;22;47274;-77
2023/09/28 06:59:07;;;;;;;;;1.75;1.75;;;;;22.88;61.74;101013.56;6216748;22;45404;-77
2023/09/28 07:01:33;;;;;;;;;5.25;3.00;;;;;22.89;61.64;101005.38;6215839;22;45691;-78
2023/09/28 07:03:59;;;;;;;;;6.50;3.25;;;;;22.95;61.03;101007.91;6213630;22;45351;-77
2023/09/28 07:06:24;;;;;;;;;5.75;3.50;;;;;23.02;60.65;101016.75;6239788;22;46989;-77
2023/09/28 07:08:50;;;;;;;;;4.25;1.50;;;;;23.05;60.64;101010.34;6223278;22;45388;-78
2023/09/28 07:11:15;;;;;;;;;7.00;7.00;;;;;23.18;60.48;101022.53;6220070;22;45315;-76
2023/09/28 07:13:41;;;;;;;;;1.25;1.25;;;;;23.27;60.30;101014.09;6212646;22;45382;-76
2023/09/28 07:16:09;;;;;;;;;5.50;3.00;;;;;23.35;60.17;101014.72;6215312;22;45636;-74
2023/09/28 07:18:35;;;;;;;;;3.25;3.25;;;;;23.49;60.10;101022.38;6224438;22;44885;-74
2023/09/28 07:21:02;;;;;;;;;5.50;4.00;;;;;23.45;59.59;101026.16;6212797;22;44818;-72
2023/09/28 07:23:28;;;;;;;;;2.00;1.75;;;;;23.54;59.73;101030.38;6217334;22;45304;-71
2023/09/28 07:25:55;;;;;;;;;4.75;3.00;;;;;23.63;59.61;101040.91;6220269;22;45765;-72
2023/09/28 07:28:21;;;;;;;;;4.00;2.25;;;;;23.65;58.48;101059.84;6228630;22;44687;-72
2023/09/28 07:30:46;;;;;;;;;2.00;2.00;;;;;23.66;58.90;101067.06;6226358;22;45222;-72
2023/09/28 07:33:15;;;;;;;;;8.75;3.00;;;;;23.71;59.25;101071.41;6232862;22;44871;-71
2023/09/28 07:35:43;;;;;;;;;3.00;2.00;;;;;23.94;58.49;101062.44;6222666;22;45887;-75
2023/09/28 07:38:08;;;;;;;;;2.00;2.00;;;;;23.91;58.60;101053.50;6248979;22;44787;-73
2023/09/28 07:40:34;;;;;;;;;6.33;5.00;;;;;23.95;57.77;101057.88;6256798;22;44951;-73
2023/09/28 07:42:59;;;;;;;;;3.50;2.75;;;;;23.96;58.37;101059.69;6235698;22;45194;-70
2023/09/28 07:45:25;;;;;;;;;2.75;2.50;;;;;24.01;58.22;101059.50;6244582;22;45353;-74
2023/09/28 07:47:50;;;;;;;;;3.25;3.00;;;;;24.04;57.96;101064.84;6251515;22;45359;-74
2023/09/28 07:50:16;;;;;;;;;3.50;3.50;;;;;24.16;57.79;101077.97;6230951;22;45444;-74
2023/09/28 07:52:44;;;;;;;;;3.67;3.00;;;;;24.21;57.48;101070.50;6215301;22;45450;-76
2023/09/28 07:55:11;;;;;;;;;4.25;2.25;;;;;24.32;57.14;101070.13;6243567;22;45814;-73
2023/09/28 07:57:36;;;;;;;;;2.25;2.00;;;;;24.35;57.03;101073.59;6240384;22;45375;-75
2023/09/28 08:00:06;;;;;;;;;3.25;2.75;;;;;24.58;57.32;101079.13;6230277;22;44781;-75
2023/09/28 08:02:32;;;;;;;;;4.50;3.50;;;;;24.49;56.20;101070.34;6258668;22;44719;-74
2023/09/28 08:04:58;;;;;;;;;4.00;4.00;;;;;24.57;56.96;101071.94;6255253;22;44860;-72
2023/09/28 08:07:24;;;;;;;;;4.50;2.00;;;;;24.76;57.07;101067.50;6238411;22;45300;-72
2023/09/28 08:09:50;;;;;;;;;4.00;3.00;;;;;24.89;56.25;101074.25;6265565;22;44729;-72
2023/09/28 08:12:15;;;;;;;;;6.00;5.00;;;;;24.98;55.73;101072.09;6238916;22;45321;-72
2023/09/28 08:14:42;;;;;;;;;6.25;5.25;;;;;25.07;55.67;101078.06;6259707;22;45235;-73
2023/09/28 08:17:09;;;;;;;;;3.00;3.00;;;;;25.10;55.35;101079.75;6257752;22;44724;-73
2023/09/28 08:19:36;;;;;;;;;2.67;2.67;;;;;25.03;54.93;101076.41;6262377;22;44768;-73
2023/09/28 08:22:01;;;;;;;;;6.00;4.00;;;;;24.97;55.01;101082.09;6260306;22;44791;-71
2023/09/28 08:24:28;;;;;;;;;8.50;5.00;;;;;25.14;55.47;101095.00;6225580;22;45972;-72
2023/09/28 08:26:54;;;;;;;;;2.50;2.50;;;;;24.75;55.38;101112.88;6232140;22;45335;-73
2023/09/28 08:29:20;;;;;;;;;4.50;3.75;;;;;25.08;55.02;101107.03;6240341;22;44748;-74
2023/09/28 08:31:45;;;;;;;;;7.67;5.00;;;;;25.23;54.60;101105.56;6256630;22;45339;-71
2023/09/28 08:34:12;;;;;;;;;3.00;2.50;;;;;25.31;54.85;101114.31;6242172;22;45488;-75
2023/09/28 08:36:38;;;;;;;;;5.00;3.00;;;;;25.39;54.29;101115.81;6243465;22;45539;-74
2023/09/28 08:39:05;;;;;;;;;2.50;1.75;;;;;25.54;54.66;101120.63;6243365;22;45284;-72
2023/09/28 08:41:36;;;;;;;;;5.00;5.00;;;;;25.89;54.24;101120.94;6244627;22;45448;-73
2023/09/28 08:44:05;;;;;;;;;3.25;3.25;;;;;25.91;53.91;101106.31;6213987;22;47019;-73
2023/09/28 08:46:40;;;;;;;;;6.25;3.00;;;;;25.37;55.09;101117.72;6239306;22;45336;-74
2023/09/28 08:49:07;;;;;;;;;3.00;3.00;;;;;25.46;54.99;101123.66;6211506;22;45401;-73
2023/09/28 08:51:37;;;;;;;;;2.50;2.25;;;;;25.54;55.28;101116.06;6242439;22;45440;-70
2023/09/28 08:54:05;;;;;;;;;5.25;5.00;;;;;25.42;54.68;101110.25;6238649;22;45328;-73
2023/09/28 08:56:37;;;;;;;;;1.25;1.25;;;;;25.54;54.58;101094.25;6238170;22;45448;-73
2023/09/28 08:59:06;;;;;;;;;6.75;4.00;;;;;25.47;54.61;101078.25;6238142;22;45334;-74
2023/09/28 09:01:32;;;;;;;;;2.00;2.00;;;;;25.60;54.02;101093.13;6211720;22;45783;-71
2023/09/28 09:03:59;;;;;;;;;7.50;3.50;;;;;25.60;54.06;101078.63;6215690;22;47641;-72
2023/09/28 09:06:28;;;;;;;;;7.25;3.75;;;;;25.90;54.00;101085.47;6243457;22;44856;-71
2023/09/28 09:08:57;;;;;;;;;6.00;4.75;;;;;25.80;53.97;101077.75;6241744;22;44761;-70
2023/09/28 09:11:25;;;;;;;;;8.75;6.00;;;;;25.96;54.01;101069.81;6243541;22;44944;-72
2023/09/28 09:13:53;;;;;;;;;3.00;3.00;;;;;25.91;54.09;101070.88;6215446;22;47110;-70
2023/09/28 09:16:27;;;;;;;;;3.25;2.50;;;;;26.32;52.78;101076.31;6243112;22;45400;-73
2023/09/28 09:18:54;;;;;;;;;5.00;4.50;;;;;26.30;52.53;101071.91;6243669;22;44812;-69
2023/09/28 09:21:24;;;;;;;;;3.75;2.25;;;;;26.29;52.31;101067.38;6241395;22;44761;-73
2023/09/28 09:24:10;;;;;;;;;4.25;4.00;;;;;26.64;51.60;101070.31;6217059;22;47614;-74
2023/09/28 09:26:52;;;;;;;;;4.75;4.00;;;;;26.63;52.08;101079.47;6224981;22;45411;-74
2023/09/28 09:29:18;;;;;;;;;6.67;5.00;;;;;26.27;51.76;101078.34;6232239;22;44799;-73
2023/09/28 09:31:51;;;;;;;;;5.33;4.00;;;;;26.31;51.70;101084.56;6249249;22;45406;-73
2023/09/28 09:34:26;;;;;;;;;7.67;6.00;;;;;26.35;51.23;101094.38;6214656;22;48134;-76
2023/09/28 09:36:59;;;;;;;;;6.67;4.00;;;;;25.99;50.81;101092.34;6226150;22;44753;-73
2023/09/28 09:39:26;;;;;;;;;3.00;3.00;;;;;25.53;51.37;101080.69;6213303;22;45325;-76
2023/09/28 09:41:53;;;;;;;;;2.33;2.33;;;;;25.44;52.15;101081.13;6207862;22;45742;-73
2023/09/28 09:44:20;;;;;;;;;3.67;3.67;;;;;25.46;51.86;101093.72;6233371;22;47260;-70
2023/09/28 09:46:50;;;;;;;;;5.00;3.00;;;;;25.14;52.87;101105.91;6212690;22;44853;-73
2023/09/28 09:49:19;;;;;;;;;1.75;1.75;;;;;25.00;52.80;101109.19;6217772;22;44807;-73
2023/09/28 09:51:46;;;;;;;;;4.75;3.50;;;;;25.08;52.52;101106.16;6211820;22;45277;-72
2023/09/28 09:54:16;;;;;;;;;5.50;3.75;;;;;25.09;51.41;101103.38;6209177;22;45293;-72
2023/09/28 09:56:44;;;;;;;;;4.25;2.25;;;;;24.99;51.95;101096.53;6208879;22;45434;-75
2023/09/28 09:59:16;;;;;;;;;3.00;2.50;;;;;25.05;51.55;101090.84;6225503;22;44774;-75
2023/09/28 10:01:47;;;;;;;;;4.50;3.25;;;;;24.98;51.83;101093.88;6209569;22;45419;-76
2023/09/28 10:04:16;;;;;;;;;1.00;1.00;;;;;25.07;52.29;101094.38;6211594;22;45360;-69
2023/09/28 10:06:45;;;;;;;;;4.50;3.25;;;;;25.37;51.93;101093.19;6250918;22;45031;-73
2023/09/28 10:09:11;;;;;;;;;3.75;3.00;;;;;25.42;51.13;101091.19;6219841;22;45439;-72
2023/09/28 10:11:40;;;;;;;;;3.00;3.00;;;;;25.68;50.48;101090.94;6223604;22;45193;-73
2023/09/28 10:14:08;;;;;;;;;2.50;2.25;;;;;25.79;49.99;101084.16;6216420;22;46167;-73
2023/09/28 10:16:36;;;;;;;;;1.50;1.50;;;;;25.95;50.16;101068.91;6225031;22;44916;-75
2023/09/28 10:19:05;;;;;;;;;3.50;2.25;;;;;26.02;50.13;101061.38;6214492;22;45347;-73
2023/09/28 10:21:37;;;;;;;;;2.25;2.25;;;;;26.13;49.46;101061.75;6234489;22;45634;-75
2023/09/28 10:24:11;;;;;;;;;3.00;2.25;;;;;26.14;50.79;101068.97;6207879;22;46044;-75
2023/09/28 10:26:38;;;;;;;;;2.25;1.25;;;;;26.00;49.83;101068.72;6210554;22;45282;-74
2023/09/28 10:29:09;;;;;;;;;2.75;2.75;;;;;26.14;49.58;101069.84;6209109;22;45400;-71
2023/09/28 10:31:41;;;;;;;;;3.50;3.00;;;;;26.12;49.37;101069.03;6210580;22;44864;-74
2023/09/28 10:34:08;;;;;;;;;2.50;2.50;;;;;26.00;49.17;101068.72;6206461;22;46145;-71
2023/09/28 10:36:37;;;;;;;;;2.75;2.75;;;;;26.03;50.19;101072.19;6204275;22;45405;-71
2023/09/28 10:39:11;;;;;;;;;2.75;2.75;;;;;26.22;50.22;101065.88;6207612;22;45344;-73
2023/09/28 10:41:38;;;;;;;;;4.50;4.50;;;;;26.20;48.64;101045.97;6233885;22;45499;-72
2023/09/28 10:44:34;;;;;;;;;2.25;2.25;;;;;26.39;49.49;101044.19;6207423;22;47773;-73
2023/09/28 10:46:59;;;;;;;;;3.25;2.25;;;;;26.28;48.05;101043.81;6122939;23;45402;-72
2023/09/28 10:49:27;;;;;;;;;1.00;1.00;;;;;26.40;49.44;101056.88;6123094;23;45286;-72
2023/09/28 10:51:55;;;;;;;;;2.00;2.00;;;;;26.59;48.91;101050.56;6121122;23;45617;-72
2023/09/28 10:54:23;;;;;;;;;2.00;2.00;;;;;26.57;47.19;101036.97;6123013;23;46955;-74
2023/09/28 10:56:50;;;;;;;;;3.50;2.75;;;;;26.58;47.57;101041.47;6150481;23;44869;-76
2023/09/28 10:59:18;;;;;;;;;4.00;2.50;;;;;26.72;47.92;101038.09;6103064;23;44783;-72
2023/09/28 11:01:48;;;;;;;;;4.75;3.00;;;;;26.80;48.64;101040.44;6150400;23;45367;-73
2023/09/28 11:04:15;;;;;;;;;4.50;3.75;;;;;26.74;48.42;101044.34;6125373;23;45508;-73
2023/09/28 11:06:44;;;;;;;;;3.00;3.00;;;;;26.78;47.31;101040.50;6126708;23;45752;-76
2023/09/28 11:09:13;;;;;;;;;3.00;3.00;;;;;26.67;48.40;101048.34;6156554;23;44849;-75
2023/09/28 11:11:42;;;;;;;;;2.75;2.25;;;;;26.85;47.74;101061.09;6150336;23;45432;-74
2023/09/28 11:14:07;;;;;;;;;1.25;1.00;;;;;26.65;47.95;101055.72;6121431;23;47213;-73
2023/09/28 11:16:34;;;;;;;;;1.00;1.00;;;;;26.76;49.13;101061.53;6122223;23;45827;-74
2023/09/28 11:19:00;;;;;;;;;8.33;4.67;;;;;26.89;48.13;101054.53;6121503;23;45557;-74
2023/09/28 11:21:28;;;;;;;;;4.00;4.00;;;;;26.92;47.50;101053.50;6125273;23;45473;-75
2023/09/28 11:23:54;;;;;;;;;3.00;2.50;;;;;26.99;48.23;101040.44;6206414;22;45336;-72
2023/09/28 11:26:20;;;;;;;;;5.00;2.25;;;;;27.02;46.71;101022.03;6214342;22;45352;-73
2023/09/28 11:28:46;;;;;;;;;3.75;1.00;;;;;27.17;47.55;101019.50;6209211;22;45671;-74
2023/09/28 11:31:13;;;;;;;;;0.50;0.50;;;;;27.44;47.21;101025.44;6208381;22;45579;-74
2023/09/28 11:33:39;;;;;;;;;2.00;2.00;;;;;27.48;46.91;101021.56;6207165;22;46781;-74
2023/09/28 11:36:06;;;;;;;;;1.75;1.00;;;;;27.58;47.56;101021.97;6209200;22;45552;-73
2023/09/28 11:38:32;;;;;;;;;2.75;1.50;;;;;27.56;46.28;101016.59;6239532;22;45373;-73
2023/09/28 11:40:58;;;;;;;;;1.00;1.00;;;;;27.44;47.20;101017.25;6242159;22;45438;-72
2023/09/28 11:43:24;;;;;;;;;3.00;3.00;;;;;27.41;46.38;101022.84;6214598;22;46970;-75